sensor_id;sensor_type;location;lat;lon;timestamp;temperature;humidity
51579;DHT22;47998;53.242;6.386;2022-09-17T00:00:54;11.50;1.00
51579;DHT22;47998;53.242;6.386;2022-09-17T00:03:20;11.40;1.00
51579;DHT22;47998;53.242;6.386;2022-09-17T00:05:47;11.60;99.90
51579;DHT22;47998;53.242;6.386;2022-09-17T00:08:13;11.60;1.00
51579;DHT22;47998;53.242;6.386;2022-09-17T00:10:42;11.50;99.90
51579;DHT22;47998;53.242;6.386;2022-09-17T00:13:10;11.30;99.90
51579;DHT22;47998;53.242;6.386;2022-09-17T00:15:43;11.20;1.00
51579;DHT22;47998;53.242;6.386;2022-09-17T00:18:09;11.10;99.90
51579;DHT22;47998;53.242;6.386;2022-09-17T00:20:42;11.10;99.90
51579;DHT22;47998;53.242;6.386;2022-09-17T00:23:09;11.30;99.90
51579;DHT22;47998;53.242;6.386;2022-09-17T00:25:43;11.20;1.00
51579;DHT22;47998;53.242;6.386;2022-09-17T00:28:10;11.10;40.90
51579;DHT22;47998;53.242;6.386;2022-09-17T00:30:39;11.00;99.90
51579;DHT22;47998;53.242;6.386;2022-09-17T00:33:05;10.80;99.90
51579;DHT22;47998;53.242;6.386;2022-09-17T00:35:31;10.60;99.90
51579;DHT22;47998;53.242;6.386;2022-09-17T00:37:57;10.60;99.90
51579;DHT22;47998;53.242;6.386;2022-09-17T00:40:22;10.40;1.00
51579;DHT22;47998;53.242;6.386;2022-09-17T00:42:48;10.20;1.00
51579;DHT22;47998;53.242;6.386;2022-09-17T00:45:14;9.90;1.00
51579;DHT22;47998;53.242;6.386;2022-09-17T00:47:44;9.90;1.00
51579;DHT22;47998;53.242;6.386;2022-09-17T00:50:25;10.20;99.90
51579;DHT22;47998;53.242;6.386;2022-09-17T00:52:56;10.30;1.00
51579;DHT22;47998;53.242;6.386;2022-09-17T00:57:56;10.80;99.90
51579;DHT22;47998;53.242;6.386;2022-09-17T01:00:23;11.10;99.90
51579;DHT22;47998;53.242;6.386;2022-09-17T01:02:51;11.20;1.00
51579;DHT22;47998;53.242;6.386;2022-09-17T01:05:21;11.30;99.90
51579;DHT22;47998;53.242;6.386;2022-09-17T01:42:08;11.50;1.00
51579;DHT22;47998;53.242;6.386;2022-09-17T01:44:46;11.40;1.00
51579;DHT22;47998;53.242;6.386;2022-09-17T01:50:00;11.60;99.90
51579;DHT22;47998;53.242;6.386;2022-09-17T01:52:31;11.70;99.90
51579;DHT22;47998;53.242;6.386;2022-09-17T01:55:00;11.70;99.90
51579;DHT22;47998;53.242;6.386;2022-09-17T01:57:33;11.70;99.90
51579;DHT22;47998;53.242;6.386;2022-09-17T02:00:27;11.60;94.30
51579;DHT22;47998;53.242;6.386;2022-09-17T02:02:59;11.50;1.00
51579;DHT22;47998;53.242;6.386;2022-09-17T02:05:39;11.40;99.90
51579;DHT22;47998;53.242;6.386;2022-09-17T02:08:13;11.30;99.90
51579;DHT22;47998;53.242;6.386;2022-09-17T02:10:45;11.30;99.90
51579;DHT22;47998;53.242;6.386;2022-09-17T02:13:25;11.20;99.90
51579;DHT22;47998;53.242;6.386;2022-09-17T02:15:56;11.60;99.90
51579;DHT22;47998;53.242;6.386;2022-09-17T02:18:42;11.70;80.90
51579;DHT22;47998;53.242;6.386;2022-09-17T02:21:16;11.10;1.00
51579;DHT22;47998;53.242;6.386;2022-09-17T02:23:55;10.60;99.90
51579;DHT22;47998;53.242;6.386;2022-09-17T02:26:22;10.60;99.90
51579;DHT22;47998;53.242;6.386;2022-09-17T02:28:56;10.50;1.00
51579;DHT22;47998;53.242;6.386;2022-09-17T02:31:23;10.00;1.00
51579;DHT22;47998;53.242;6.386;2022-09-17T02:33:52;10.20;1.00
51579;DHT22;47998;53.242;6.386;2022-09-17T02:36:20;10.30;1.00
51579;DHT22;47998;53.242;6.386;2022-09-17T02:38:46;10.20;1.00
51579;DHT22;47998;53.242;6.386;2022-09-17T02:41:25;10.10;1.00
51579;DHT22;47998;53.242;6.386;2022-09-17T02:44:25;9.90;1.00
51579;DHT22;47998;53.242;6.386;2022-09-17T02:47:27;10.10;17.40
51579;DHT22;47998;53.242;6.386;2022-09-17T02:52:56;10.40;1.00
51579;DHT22;47998;53.242;6.386;2022-09-17T03:00:30;10.80;99.90
51579;DHT22;47998;53.242;6.386;2022-09-17T03:03:07;10.90;99.90
51579;DHT22;47998;53.242;6.386;2022-09-17T03:05:36;10.70;99.90
51579;DHT22;47998;53.242;6.386;2022-09-17T03:08:03;10.70;99.90
51579;DHT22;47998;53.242;6.386;2022-09-17T03:10:31;10.60;82.00
51579;DHT22;47998;53.242;6.386;2022-09-17T03:12:58;10.80;1.00
51579;DHT22;47998;53.242;6.386;2022-09-17T03:15:24;10.80;1.00
51579;DHT22;47998;53.242;6.386;2022-09-17T03:17:50;10.90;94.30
51579;DHT22;47998;53.242;6.386;2022-09-17T03:20:16;10.80;99.90
51579;DHT22;47998;53.242;6.386;2022-09-17T03:22:42;10.60;99.90
51579;DHT22;47998;53.242;6.386;2022-09-17T03:25:08;9.80;1.00
51579;DHT22;47998;53.242;6.386;2022-09-17T03:27:34;9.70;99.90
51579;DHT22;47998;53.242;6.386;2022-09-17T03:29:59;9.10;99.90
51579;DHT22;47998;53.242;6.386;2022-09-17T03:32:25;8.80;99.90
51579;DHT22;47998;53.242;6.386;2022-09-17T03:34:51;9.80;99.90
51579;DHT22;47998;53.242;6.386;2022-09-17T03:37:19;9.80;99.90
51579;DHT22;47998;53.242;6.386;2022-09-17T03:39:44;9.80;99.90
51579;DHT22;47998;53.242;6.386;2022-09-17T03:42:10;10.00;88.10
51579;DHT22;47998;53.242;6.386;2022-09-17T03:44:36;9.80;1.00
51579;DHT22;47998;53.242;6.386;2022-09-17T03:47:02;9.70;1.00
51579;DHT22;47998;53.242;6.386;2022-09-17T03:49:28;10.10;99.90
51579;DHT22;47998;53.242;6.386;2022-09-17T03:51:53;10.10;99.90
51579;DHT22;47998;53.242;6.386;2022-09-17T03:54:19;10.10;99.90
51579;DHT22;47998;53.242;6.386;2022-09-17T03:56:45;9.70;99.90
51579;DHT22;47998;53.242;6.386;2022-09-17T03:59:10;9.50;99.90
51579;DHT22;47998;53.242;6.386;2022-09-17T04:01:36;9.30;99.90
51579;DHT22;47998;53.242;6.386;2022-09-17T04:04:02;9.40;99.90
51579;DHT22;47998;53.242;6.386;2022-09-17T04:06:28;9.20;99.90
51579;DHT22;47998;53.242;6.386;2022-09-17T04:08:54;9.50;99.90
51579;DHT22;47998;53.242;6.386;2022-09-17T04:11:21;9.30;99.90
51579;DHT22;47998;53.242;6.386;2022-09-17T04:13:47;9.60;1.00
51579;DHT22;47998;53.242;6.386;2022-09-17T04:16:13;9.80;99.90
51579;DHT22;47998;53.242;6.386;2022-09-17T04:18:39;9.90;99.90
51579;DHT22;47998;53.242;6.386;2022-09-17T04:21:05;9.80;99.90
51579;DHT22;47998;53.242;6.386;2022-09-17T04:23:31;10.00;1.00
51579;DHT22;47998;53.242;6.386;2022-09-17T04:25:57;10.00;1.00
51579;DHT22;47998;53.242;6.386;2022-09-17T04:28:22;10.00;1.00
51579;DHT22;47998;53.242;6.386;2022-09-17T04:30:48;9.90;1.00
51579;DHT22;47998;53.242;6.386;2022-09-17T04:33:14;10.10;99.90
51579;DHT22;47998;53.242;6.386;2022-09-17T04:35:40;10.20;1.00
51579;DHT22;47998;53.242;6.386;2022-09-17T04:38:07;10.30;99.90
51579;DHT22;47998;53.242;6.386;2022-09-17T04:40:33;10.70;99.90
51579;DHT22;47998;53.242;6.386;2022-09-17T04:42:59;10.60;99.90
51579;DHT22;47998;53.242;6.386;2022-09-17T04:45:28;10.70;65.90
51579;DHT22;47998;53.242;6.386;2022-09-17T04:47:55;10.60;91.40
51579;DHT22;47998;53.242;6.386;2022-09-17T04:50:21;10.60;99.90
51579;DHT22;47998;53.242;6.386;2022-09-17T04:52:47;10.50;65.40
51579;DHT22;47998;53.242;6.386;2022-09-17T04:55:14;10.60;1.00
51579;DHT22;47998;53.242;6.386;2022-09-17T04:57:51;10.70;1.00
51579;DHT22;47998;53.242;6.386;2022-09-17T05:00:18;10.80;1.00
51579;DHT22;47998;53.242;6.386;2022-09-17T05:02:48;10.80;99.90
51579;DHT22;47998;53.242;6.386;2022-09-17T05:05:16;10.90;99.90
51579;DHT22;47998;53.242;6.386;2022-09-17T05:07:41;11.00;99.90
51579;DHT22;47998;53.242;6.386;2022-09-17T05:10:08;11.10;99.90
51579;DHT22;47998;53.242;6.386;2022-09-17T05:12:34;11.10;99.90
51579;DHT22;47998;53.242;6.386;2022-09-17T05:15:00;11.20;99.90
51579;DHT22;47998;53.242;6.386;2022-09-17T05:17:26;11.30;99.90
51579;DHT22;47998;53.242;6.386;2022-09-17T05:19:51;11.20;99.90
51579;DHT22;47998;53.242;6.386;2022-09-17T05:22:18;11.00;99.90
51579;DHT22;47998;53.242;6.386;2022-09-17T05:24:44;10.80;1.00
51579;DHT22;47998;53.242;6.386;2022-09-17T05:27:10;10.90;1.00
51579;DHT22;47998;53.242;6.386;2022-09-17T05:29:35;10.90;99.90
51579;DHT22;47998;53.242;6.386;2022-09-17T05:32:03;10.70;99.90
51579;DHT22;47998;53.242;6.386;2022-09-17T05:34:28;10.60;1.00
51579;DHT22;47998;53.242;6.386;2022-09-17T05:36:54;10.50;1.00
51579;DHT22;47998;53.242;6.386;2022-09-17T05:39:20;10.20;1.00
51579;DHT22;47998;53.242;6.386;2022-09-17T05:41:51;10.10;1.00
51579;DHT22;47998;53.242;6.386;2022-09-17T05:44:17;9.80;1.00
51579;DHT22;47998;53.242;6.386;2022-09-17T05:46:43;9.80;1.00
51579;DHT22;47998;53.242;6.386;2022-09-17T05:49:09;9.70;1.00
51579;DHT22;47998;53.242;6.386;2022-09-17T05:51:35;9.40;99.90
51579;DHT22;47998;53.242;6.386;2022-09-17T05:54:01;9.70;1.00
51579;DHT22;47998;53.242;6.386;2022-09-17T05:56:27;9.10;1.00
51579;DHT22;47998;53.242;6.386;2022-09-17T05:58:56;9.80;1.00
51579;DHT22;47998;53.242;6.386;2022-09-17T06:01:22;9.70;1.00
51579;DHT22;47998;53.242;6.386;2022-09-17T06:03:48;9.40;1.00
51579;DHT22;47998;53.242;6.386;2022-09-17T06:06:14;9.90;1.00
51579;DHT22;47998;53.242;6.386;2022-09-17T06:08:40;9.80;99.90
51579;DHT22;47998;53.242;6.386;2022-09-17T06:11:06;8.70;1.00
51579;DHT22;47998;53.242;6.386;2022-09-17T06:13:33;8.70;1.00
51579;DHT22;47998;53.242;6.386;2022-09-17T06:15:59;9.10;1.00
51579;DHT22;47998;53.242;6.386;2022-09-17T06:18:27;9.20;1.00
51579;DHT22;47998;53.242;6.386;2022-09-17T06:20:57;9.80;1.00
51579;DHT22;47998;53.242;6.386;2022-09-17T06:23:23;8.60;99.90
51579;DHT22;47998;53.242;6.386;2022-09-17T06:25:54;9.60;99.90
51579;DHT22;47998;53.242;6.386;2022-09-17T06:28:20;9.70;99.90
51579;DHT22;47998;53.242;6.386;2022-09-17T06:30:45;8.80;99.90
51579;DHT22;47998;53.242;6.386;2022-09-17T06:33:11;10.00;1.00
51579;DHT22;47998;53.242;6.386;2022-09-17T06:35:37;10.20;1.00
51579;DHT22;47998;53.242;6.386;2022-09-17T06:38:04;9.60;99.90
51579;DHT22;47998;53.242;6.386;2022-09-17T06:40:29;9.60;38.70
51579;DHT22;47998;53.242;6.386;2022-09-17T06:42:57;9.60;99.90
51579;DHT22;47998;53.242;6.386;2022-09-17T06:45:26;9.40;99.90
51579;DHT22;47998;53.242;6.386;2022-09-17T06:47:52;10.20;80.90
51579;DHT22;47998;53.242;6.386;2022-09-17T06:50:17;9.80;1.00
51579;DHT22;47998;53.242;6.386;2022-09-17T06:52:51;10.30;99.90
51579;DHT22;47998;53.242;6.386;2022-09-17T06:55:17;10.10;1.00
51579;DHT22;47998;53.242;6.386;2022-09-17T06:57:44;10.80;19.90
51579;DHT22;47998;53.242;6.386;2022-09-17T07:00:10;11.30;99.90
51579;DHT22;47998;53.242;6.386;2022-09-17T07:02:36;11.80;99.90
51579;DHT22;47998;53.242;6.386;2022-09-17T07:05:03;11.80;99.90
51579;DHT22;47998;53.242;6.386;2022-09-17T07:07:30;11.00;1.00
51579;DHT22;47998;53.242;6.386;2022-09-17T07:09:55;11.20;99.90
51579;DHT22;47998;53.242;6.386;2022-09-17T07:12:21;12.00;80.80
51579;DHT22;47998;53.242;6.386;2022-09-17T07:14:47;11.60;14.90
51579;DHT22;47998;53.242;6.386;2022-09-17T07:17:13;11.20;1.00
51579;DHT22;47998;53.242;6.386;2022-09-17T07:19:39;11.60;1.00
51579;DHT22;47998;53.242;6.386;2022-09-17T07:22:05;11.50;1.00
51579;DHT22;47998;53.242;6.386;2022-09-17T07:24:31;11.30;70.30
51579;DHT22;47998;53.242;6.386;2022-09-17T07:26:57;11.60;1.00
51579;DHT22;47998;53.242;6.386;2022-09-17T07:29:23;12.20;1.00
51579;DHT22;47998;53.242;6.386;2022-09-17T07:31:54;11.70;99.90
51579;DHT22;47998;53.242;6.386;2022-09-17T07:34:20;11.60;96.90
51579;DHT22;47998;53.242;6.386;2022-09-17T07:36:46;12.30;99.90
51579;DHT22;47998;53.242;6.386;2022-09-17T07:39:12;12.10;99.90
51579;DHT22;47998;53.242;6.386;2022-09-17T07:41:38;12.30;99.90
51579;DHT22;47998;53.242;6.386;2022-09-17T07:44:04;12.50;1.00
51579;DHT22;47998;53.242;6.386;2022-09-17T07:46:32;12.80;1.00
51579;DHT22;47998;53.242;6.386;2022-09-17T07:48:58;13.30;99.90
51579;DHT22;47998;53.242;6.386;2022-09-17T07:51:25;13.20;1.00
51579;DHT22;47998;53.242;6.386;2022-09-17T07:53:55;13.00;1.00
51579;DHT22;47998;53.242;6.386;2022-09-17T07:56:23;12.70;99.90
51579;DHT22;47998;53.242;6.386;2022-09-17T07:58:49;11.40;99.90
51579;DHT22;47998;53.242;6.386;2022-09-17T08:01:16;8.30;99.90
51579;DHT22;47998;53.242;6.386;2022-09-17T08:03:46;11.50;99.90
51579;DHT22;47998;53.242;6.386;2022-09-17T08:06:14;11.60;99.90
51579;DHT22;47998;53.242;6.386;2022-09-17T08:08:41;11.30;99.90
51579;DHT22;47998;53.242;6.386;2022-09-17T08:11:09;8.50;99.90
51579;DHT22;47998;53.242;6.386;2022-09-17T08:13:36;9.70;99.90
51579;DHT22;47998;53.242;6.386;2022-09-17T08:16:08;8.70;99.90
51579;DHT22;47998;53.242;6.386;2022-09-17T08:18:33;8.90;99.90
51579;DHT22;47998;53.242;6.386;2022-09-17T08:21:02;10.70;99.90
51579;DHT22;47998;53.242;6.386;2022-09-17T08:23:29;9.60;99.90
51579;DHT22;47998;53.242;6.386;2022-09-17T08:25:57;10.00;99.90
51579;DHT22;47998;53.242;6.386;2022-09-17T08:28:24;10.70;99.90
51579;DHT22;47998;53.242;6.386;2022-09-17T08:30:51;10.40;99.90
51579;DHT22;47998;53.242;6.386;2022-09-17T08:33:17;11.10;99.90
51579;DHT22;47998;53.242;6.386;2022-09-17T08:35:52;11.10;99.90
51579;DHT22;47998;53.242;6.386;2022-09-17T08:38:18;11.90;99.90
51579;DHT22;47998;53.242;6.386;2022-09-17T09:06:23;11.10;1.00
51579;DHT22;47998;53.242;6.386;2022-09-17T09:08:59;11.10;1.00
51579;DHT22;47998;53.242;6.386;2022-09-17T09:11:30;11.20;1.00
51579;DHT22;47998;53.242;6.386;2022-09-17T09:14:06;11.20;6.60
51579;DHT22;47998;53.242;6.386;2022-09-17T09:16:38;11.80;1.00
51579;DHT22;47998;53.242;6.386;2022-09-17T09:19:24;12.90;99.90
51579;DHT22;47998;53.242;6.386;2022-09-17T09:22:01;13.50;1.00
51579;DHT22;47998;53.242;6.386;2022-09-17T09:24:49;14.20;1.00
51579;DHT22;47998;53.242;6.386;2022-09-17T09:27:37;11.10;1.00
51579;DHT22;47998;53.242;6.386;2022-09-17T09:30:11;9.50;99.90
51579;DHT22;47998;53.242;6.386;2022-09-17T09:35:32;10.70;99.90
51579;DHT22;47998;53.242;6.386;2022-09-17T09:38:14;10.70;99.90
51579;DHT22;47998;53.242;6.386;2022-09-17T09:40:50;10.10;99.90
51579;DHT22;47998;53.242;6.386;2022-09-17T09:43:44;10.90;99.90
51579;DHT22;47998;53.242;6.386;2022-09-17T09:46:34;11.90;99.90
51579;DHT22;47998;53.242;6.386;2022-09-17T09:57:17;13.20;1.00
51579;DHT22;47998;53.242;6.386;2022-09-17T09:59:43;13.10;1.00
51579;DHT22;47998;53.242;6.386;2022-09-17T10:02:09;13.70;9.60
51579;DHT22;47998;53.242;6.386;2022-09-17T10:04:36;14.50;99.90
51579;DHT22;47998;53.242;6.386;2022-09-17T10:07:07;14.80;1.00
51579;DHT22;47998;53.242;6.386;2022-09-17T10:09:35;15.20;99.90
51579;DHT22;47998;53.242;6.386;2022-09-17T10:14:34;15.70;99.90
51579;DHT22;47998;53.242;6.386;2022-09-17T10:19:36;14.10;99.90
51579;DHT22;47998;53.242;6.386;2022-09-17T10:24:54;12.60;99.90
51579;DHT22;47998;53.242;6.386;2022-09-17T10:27:23;12.60;1.00
51579;DHT22;47998;53.242;6.386;2022-09-17T10:29:59;12.00;99.90
51579;DHT22;47998;53.242;6.386;2022-09-17T10:32:25;11.30;1.00
51579;DHT22;47998;53.242;6.386;2022-09-17T10:35:04;10.90;99.90
51579;DHT22;47998;53.242;6.386;2022-09-17T10:37:42;10.90;99.90
51579;DHT22;47998;53.242;6.386;2022-09-17T10:43:19;11.40;99.90
51579;DHT22;47998;53.242;6.386;2022-09-17T10:45:55;10.90;99.90
51579;DHT22;47998;53.242;6.386;2022-09-17T10:48:22;11.40;99.90
51579;DHT22;47998;53.242;6.386;2022-09-17T10:50:52;12.10;99.90
51579;DHT22;47998;53.242;6.386;2022-09-17T10:53:19;13.00;99.90
51579;DHT22;47998;53.242;6.386;2022-09-17T10:56:14;13.70;1.00
51579;DHT22;47998;53.242;6.386;2022-09-17T10:59:25;14.50;99.90
51579;DHT22;47998;53.242;6.386;2022-09-17T11:10:17;14.70;99.90
51579;DHT22;47998;53.242;6.386;2022-09-17T11:18:14;13.80;96.80
51579;DHT22;47998;53.242;6.386;2022-09-17T11:28:34;13.60;93.20
51579;DHT22;47998;53.242;6.386;2022-09-17T11:31:33;13.50;1.00
51579;DHT22;47998;53.242;6.386;2022-09-17T11:37:08;13.40;1.00
51579;DHT22;47998;53.242;6.386;2022-09-17T11:42:20;14.40;1.00
51579;DHT22;47998;53.242;6.386;2022-09-17T11:44:58;14.50;99.90
51579;DHT22;47998;53.242;6.386;2022-09-17T11:47:36;13.80;99.90
51579;DHT22;47998;53.242;6.386;2022-09-17T11:50:06;13.40;99.90
51579;DHT22;47998;53.242;6.386;2022-09-17T11:53:18;13.30;99.90
51579;DHT22;47998;53.242;6.386;2022-09-17T11:55:56;13.80;99.90
51579;DHT22;47998;53.242;6.386;2022-09-17T11:58:43;14.60;99.90
51579;DHT22;47998;53.242;6.386;2022-09-17T12:01:15;15.00;1.00
51579;DHT22;47998;53.242;6.386;2022-09-17T12:03:56;14.90;1.00
51579;DHT22;47998;53.242;6.386;2022-09-17T12:06:43;15.20;57.50
51579;DHT22;47998;53.242;6.386;2022-09-17T12:09:17;15.50;99.90
51579;DHT22;47998;53.242;6.386;2022-09-17T12:11:52;15.80;99.90
51579;DHT22;47998;53.242;6.386;2022-09-17T12:14:25;16.10;99.90
51579;DHT22;47998;53.242;6.386;2022-09-17T12:16:56;16.10;1.00
51579;DHT22;47998;53.242;6.386;2022-09-17T12:19:42;16.00;1.00
51579;DHT22;47998;53.242;6.386;2022-09-17T12:22:25;16.20;1.00
51579;DHT22;47998;53.242;6.386;2022-09-17T12:24:53;16.20;1.00
51579;DHT22;47998;53.242;6.386;2022-09-17T12:30:11;16.10;99.90
51579;DHT22;47998;53.242;6.386;2022-09-17T12:32:53;16.10;99.90
51579;DHT22;47998;53.242;6.386;2022-09-17T12:38:46;16.30;99.90
51579;DHT22;47998;53.242;6.386;2022-09-17T12:44:23;16.60;1.00
51579;DHT22;47998;53.242;6.386;2022-09-17T12:47:14;15.50;99.90
51579;DHT22;47998;53.242;6.386;2022-09-17T12:55:29;16.10;1.00
51579;DHT22;47998;53.242;6.386;2022-09-17T13:00:47;16.50;1.00
51579;DHT22;47998;53.242;6.386;2022-09-17T13:03:34;16.70;1.00
51579;DHT22;47998;53.242;6.386;2022-09-17T13:18:00;16.50;99.90
51579;DHT22;47998;53.242;6.386;2022-09-17T13:20:33;16.30;99.90
51579;DHT22;47998;53.242;6.386;2022-09-17T13:23:02;16.20;1.00
51579;DHT22;47998;53.242;6.386;2022-09-17T13:25:29;16.10;80.70
51579;DHT22;47998;53.242;6.386;2022-09-17T13:28:21;16.30;99.90
51579;DHT22;47998;53.242;6.386;2022-09-17T13:31:00;16.20;1.00
51579;DHT22;47998;53.242;6.386;2022-09-17T13:33:52;16.20;22.70
51579;DHT22;47998;53.242;6.386;2022-09-17T13:39:08;16.10;89.10
51579;DHT22;47998;53.242;6.386;2022-09-17T13:41:38;16.30;99.90
51579;DHT22;47998;53.242;6.386;2022-09-17T13:44:06;16.30;99.90
51579;DHT22;47998;53.242;6.386;2022-09-17T13:46:34;16.30;99.90
51579;DHT22;47998;53.242;6.386;2022-09-17T13:49:12;16.50;99.90
51579;DHT22;47998;53.242;6.386;2022-09-17T13:54:06;16.20;1.00
51579;DHT22;47998;53.242;6.386;2022-09-17T13:56:42;15.80;99.90
51579;DHT22;47998;53.242;6.386;2022-09-17T13:59:25;15.60;99.90
51579;DHT22;47998;53.242;6.386;2022-09-17T14:04:45;14.90;99.90
51579;DHT22;47998;53.242;6.386;2022-09-17T14:07:32;15.30;99.90
51579;DHT22;47998;53.242;6.386;2022-09-17T14:10:00;15.70;99.90
51579;DHT22;47998;53.242;6.386;2022-09-17T14:23:40;12.50;1.00
51579;DHT22;47998;53.242;6.386;2022-09-17T14:26:13;12.60;1.00
51579;DHT22;47998;53.242;6.386;2022-09-17T14:31:51;12.90;19.70
51579;DHT22;47998;53.242;6.386;2022-09-17T14:34:24;13.30;1.00
51579;DHT22;47998;53.242;6.386;2022-09-17T14:36:51;13.00;99.90
51579;DHT22;47998;53.242;6.386;2022-09-17T14:39:35;13.30;99.90
51579;DHT22;47998;53.242;6.386;2022-09-17T14:42:04;13.50;1.00
51579;DHT22;47998;53.242;6.386;2022-09-17T14:44:33;13.50;1.00
51579;DHT22;47998;53.242;6.386;2022-09-17T14:47:02;13.90;99.90
51579;DHT22;47998;53.242;6.386;2022-09-17T14:49:34;14.50;99.90
51579;DHT22;47998;53.242;6.386;2022-09-17T14:52:02;14.70;1.00
51579;DHT22;47998;53.242;6.386;2022-09-17T14:54:42;14.70;1.00
51579;DHT22;47998;53.242;6.386;2022-09-17T14:59:53;14.20;99.90
51579;DHT22;47998;53.242;6.386;2022-09-17T15:02:40;13.90;1.00
51579;DHT22;47998;53.242;6.386;2022-09-17T15:05:35;13.30;99.90
51579;DHT22;47998;53.242;6.386;2022-09-17T15:11:02;12.00;99.90
51579;DHT22;47998;53.242;6.386;2022-09-17T15:13:41;11.90;99.90
51579;DHT22;47998;53.242;6.386;2022-09-17T15:16:26;11.90;1.00
51579;DHT22;47998;53.242;6.386;2022-09-17T15:18:52;12.60;99.90
51579;DHT22;47998;53.242;6.386;2022-09-17T15:27:01;14.00;99.90
51579;DHT22;47998;53.242;6.386;2022-09-17T15:29:29;14.30;99.90
51579;DHT22;47998;53.242;6.386;2022-09-17T15:31:57;15.00;99.90
51579;DHT22;47998;53.242;6.386;2022-09-17T15:34:23;15.00;31.00
51579;DHT22;47998;53.242;6.386;2022-09-17T15:37:04;14.70;84.70
51579;DHT22;47998;53.242;6.386;2022-09-17T15:39:38;14.80;99.90
51579;DHT22;47998;53.242;6.386;2022-09-17T15:42:04;14.50;1.00
51579;DHT22;47998;53.242;6.386;2022-09-17T15:44:30;14.30;99.90
51579;DHT22;47998;53.242;6.386;2022-09-17T15:50:19;13.70;1.00
51579;DHT22;47998;53.242;6.386;2022-09-17T15:52:47;14.10;99.90
51579;DHT22;47998;53.242;6.386;2022-09-17T15:58:26;15.10;1.00
51579;DHT22;47998;53.242;6.386;2022-09-17T16:08:53;13.80;1.00
51579;DHT22;47998;53.242;6.386;2022-09-17T16:11:21;13.60;99.90
51579;DHT22;47998;53.242;6.386;2022-09-17T16:13:48;13.90;1.00
51579;DHT22;47998;53.242;6.386;2022-09-17T16:16:17;14.20;37.10
51579;DHT22;47998;53.242;6.386;2022-09-17T16:18:43;14.30;99.90
51579;DHT22;47998;53.242;6.386;2022-09-17T16:21:13;14.30;99.90
51579;DHT22;47998;53.242;6.386;2022-09-17T16:23:40;14.30;99.90
51579;DHT22;47998;53.242;6.386;2022-09-17T16:26:09;14.40;99.90
51579;DHT22;47998;53.242;6.386;2022-09-17T16:28:37;14.20;99.90
51579;DHT22;47998;53.242;6.386;2022-09-17T16:31:04;14.40;99.90
51579;DHT22;47998;53.242;6.386;2022-09-17T16:33:30;13.90;99.90
51579;DHT22;47998;53.242;6.386;2022-09-17T16:35:57;14.30;7.50
51579;DHT22;47998;53.242;6.386;2022-09-17T16:38:24;13.90;1.00
51579;DHT22;47998;53.242;6.386;2022-09-17T16:40:49;14.50;99.90
51579;DHT22;47998;53.242;6.386;2022-09-17T16:43:16;14.60;1.00
51579;DHT22;47998;53.242;6.386;2022-09-17T16:45:42;14.50;1.00
51579;DHT22;47998;53.242;6.386;2022-09-17T16:48:09;13.50;1.00
51579;DHT22;47998;53.242;6.386;2022-09-17T16:50:38;13.20;1.00
51579;DHT22;47998;53.242;6.386;2022-09-17T16:53:05;14.10;99.90
51579;DHT22;47998;53.242;6.386;2022-09-17T16:55:31;13.40;99.90
51579;DHT22;47998;53.242;6.386;2022-09-17T16:57:57;13.40;99.90
51579;DHT22;47998;53.242;6.386;2022-09-17T17:00:23;12.90;1.00
51579;DHT22;47998;53.242;6.386;2022-09-17T17:02:54;13.00;84.10
51579;DHT22;47998;53.242;6.386;2022-09-17T17:05:20;12.60;99.90
51579;DHT22;47998;53.242;6.386;2022-09-17T17:07:46;12.60;1.00
51579;DHT22;47998;53.242;6.386;2022-09-17T17:10:12;12.60;49.00
51579;DHT22;47998;53.242;6.386;2022-09-17T17:12:38;12.20;1.00
51579;DHT22;47998;53.242;6.386;2022-09-17T17:15:04;11.90;1.00
51579;DHT22;47998;53.242;6.386;2022-09-17T17:17:34;12.30;1.00
51579;DHT22;47998;53.242;6.386;2022-09-17T17:20:01;12.40;82.60
51579;DHT22;47998;53.242;6.386;2022-09-17T17:22:29;12.20;1.00
51579;DHT22;47998;53.242;6.386;2022-09-17T17:24:54;12.30;17.60
51579;DHT22;47998;53.242;6.386;2022-09-17T17:27:21;12.30;99.90
51579;DHT22;47998;53.242;6.386;2022-09-17T17:29:46;12.30;99.90
51579;DHT22;47998;53.242;6.386;2022-09-17T17:32:12;12.20;1.00
51579;DHT22;47998;53.242;6.386;2022-09-17T17:34:38;11.40;99.90
51579;DHT22;47998;53.242;6.386;2022-09-17T17:37:04;11.50;1.00
51579;DHT22;47998;53.242;6.386;2022-09-17T17:39:29;10.90;58.80
51579;DHT22;47998;53.242;6.386;2022-09-17T17:41:55;10.50;99.90
51579;DHT22;47998;53.242;6.386;2022-09-17T17:44:21;10.90;42.70
51579;DHT22;47998;53.242;6.386;2022-09-17T17:46:47;11.20;99.90
51579;DHT22;47998;53.242;6.386;2022-09-17T17:49:12;10.90;99.90
51579;DHT22;47998;53.242;6.386;2022-09-17T17:51:38;11.30;99.90
51579;DHT22;47998;53.242;6.386;2022-09-17T17:54:04;11.00;99.90
51579;DHT22;47998;53.242;6.386;2022-09-17T17:56:29;10.80;1.00
51579;DHT22;47998;53.242;6.386;2022-09-17T17:58:57;11.20;16.90
51579;DHT22;47998;53.242;6.386;2022-09-17T18:01:30;11.10;23.60
51579;DHT22;47998;53.242;6.386;2022-09-17T18:04:00;10.50;99.90
51579;DHT22;47998;53.242;6.386;2022-09-17T18:06:27;10.40;99.90
51579;DHT22;47998;53.242;6.386;2022-09-17T18:08:53;11.00;99.90
51579;DHT22;47998;53.242;6.386;2022-09-17T18:11:20;10.30;99.90
51579;DHT22;47998;53.242;6.386;2022-09-17T18:13:53;10.20;99.90
51579;DHT22;47998;53.242;6.386;2022-09-17T18:16:20;10.10;99.90
51579;DHT22;47998;53.242;6.386;2022-09-17T18:18:46;10.00;99.90
51579;DHT22;47998;53.242;6.386;2022-09-17T18:21:14;10.10;99.90
51579;DHT22;47998;53.242;6.386;2022-09-17T18:23:41;10.00;1.00
51579;DHT22;47998;53.242;6.386;2022-09-17T18:26:10;10.60;1.00
51579;DHT22;47998;53.242;6.386;2022-09-17T18:28:37;10.50;99.90
51579;DHT22;47998;53.242;6.386;2022-09-17T18:31:07;10.60;91.70
51579;DHT22;47998;53.242;6.386;2022-09-17T18:33:33;10.50;99.90
51579;DHT22;47998;53.242;6.386;2022-09-17T18:36:01;10.90;99.90
51579;DHT22;47998;53.242;6.386;2022-09-17T18:38:27;10.70;1.00
51579;DHT22;47998;53.242;6.386;2022-09-17T18:40:53;10.90;1.00
51579;DHT22;47998;53.242;6.386;2022-09-17T18:43:19;11.10;1.00
51579;DHT22;47998;53.242;6.386;2022-09-17T18:45:55;10.90;1.00
51579;DHT22;47998;53.242;6.386;2022-09-17T18:48:22;10.90;1.00
51579;DHT22;47998;53.242;6.386;2022-09-17T18:51:05;11.10;99.90
51579;DHT22;47998;53.242;6.386;2022-09-17T18:53:35;10.60;1.00
51579;DHT22;47998;53.242;6.386;2022-09-17T18:56:09;10.60;1.00
51579;DHT22;47998;53.242;6.386;2022-09-17T18:58:36;10.50;99.90
51579;DHT22;47998;53.242;6.386;2022-09-17T19:01:06;10.80;99.90
51579;DHT22;47998;53.242;6.386;2022-09-17T19:03:32;10.90;1.00
51579;DHT22;47998;53.242;6.386;2022-09-17T19:05:59;10.10;1.00
51579;DHT22;47998;53.242;6.386;2022-09-17T19:08:25;10.20;3.40
51579;DHT22;47998;53.242;6.386;2022-09-17T19:10:52;10.20;93.80
51579;DHT22;47998;53.242;6.386;2022-09-17T19:13:18;10.30;99.90
51579;DHT22;47998;53.242;6.386;2022-09-17T19:15:43;10.20;1.00
51579;DHT22;47998;53.242;6.386;2022-09-17T19:18:09;10.40;1.00